Time;durP1;ratioP1;P1;durP2;ratioP2;P2;SDS_P1;SDS_P2;PMS_P1;PMS_P2;Temp;Humidity;BMP_temperature;BMP_pressure;BME280_temperature;BME280_humidity;BME280_pressure;Samples;Min_cycle;Max_cycle;Signal;HPM_P1;HPM_P2
2022/07/01 00:00:36;;;;;;;;;;;;;;;23.88;50.81;99560.84;3150212;28;20384;-66
2022/07/01 00:02:07;;;;;;;;;;;;;;;23.88;50.78;99556.34;3138540;28;19927;-66
2022/07/01 00:03:39;;;;;;;;;;;;;;;23.90;51.12;99559.69;3145706;28;19994;-66
2022/07/01 00:05:10;;;;;;;;;;;;;;;23.91;50.62;99550.69;3145628;28;19920;-66
2022/07/01 00:06:41;;;;;;;;;;;;;;;23.91;50.95;99545.38;3145847;28;19932;-66
2022/07/01 00:08:13;;;;;;;;;;;;;;;23.92;51.58;99556.84;3146584;28;20412;-66
2022/07/01 00:09:45;;;;;;;;;;;;;;;23.91;51.22;99545.38;3145665;28;19943;-66
2022/07/01 00:11:17;;;;;;;;;;;;;;;23.92;51.77;99554.19;3145625;28;19999;-66
2022/07/01 00:12:49;;;;;;;;;;;;;;;23.90;52.20;99554.38;3149868;28;19920;-66
2022/07/01 00:14:22;;;;;;;;;;;;;;;23.89;52.45;99555.34;3145884;28;20293;-66
2022/07/01 00:15:55;;;;;;;;;;;;;;;23.88;52.01;99558.19;3145549;28;19943;-66
2022/07/01 00:17:27;;;;;;;;;;;;;;;23.87;52.11;99560.00;3145185;28;20401;-66
2022/07/01 00:18:58;;;;;;;;;;;;;;;23.87;52.35;99565.31;3144632;28;20000;-65
2022/07/01 00:20:30;;;;;;;;;;;;;;;23.84;52.39;99571.78;3145250;28;19955;-66
2022/07/01 00:22:01;;;;;;;;;;;;;;;23.84;52.73;99560.31;3145084;28;19928;-66
2022/07/01 00:23:33;;;;;;;;;;;;;;;23.82;52.97;99562.31;3145389;28;20455;-66
2022/07/01 00:25:06;;;;;;;;;;;;;;;23.81;52.59;99556.16;3145957;28;20321;-66
2022/07/01 00:26:38;;;;;;;;;;;;;;;23.80;52.96;99557.13;3140130;28;19926;-66
2022/07/01 00:28:09;;;;;;;;;;;;;;;23.77;53.01;99549.47;3147050;28;19931;-66
2022/07/01 00:29:40;;;;;;;;;;;;;;;23.77;52.92;99546.81;3154344;28;19920;-66
2022/07/01 00:31:13;;;;;;;;;;;;;;;23.76;52.92;99553.13;3145890;28;20073;-66
2022/07/01 00:32:46;;;;;;;;;;;;;;;23.75;52.66;99548.81;3145601;28;20290;-66
2022/07/01 00:34:18;;;;;;;;;;;;;;;23.75;52.85;99545.31;3145370;28;20007;-66
2022/07/01 00:35:49;;;;;;;;;;;;;;;23.73;52.75;99544.66;3145752;28;19924;-66
2022/07/01 00:37:21;;;;;;;;;;;;;;;23.72;53.29;99541.16;3145549;28;19920;-66
2022/07/01 00:38:52;;;;;;;;;;;;;;;23.72;53.14;99545.63;3145711;28;20003;-66
2022/07/01 00:40:24;;;;;;;;;;;;;;;23.70;53.03;99543.16;3145375;28;19920;-66
2022/07/01 00:41:59;;;;;;;;;;;;;;;23.66;53.14;99536.44;3145533;28;20001;-66
2022/07/01 00:43:36;;;;;;;;;;;;;;;23.68;53.21;99541.59;3147345;28;19928;-66
2022/07/01 00:45:09;;;;;;;;;;;;;;;23.67;53.33;99540.78;3148432;28;20397;-66
2022/07/01 00:46:42;;;;;;;;;;;;;;;23.65;53.36;99540.09;3141791;28;19980;-67
2022/07/01 00:48:14;;;;;;;;;;;;;;;23.65;53.38;99542.75;3137607;28;19920;-67
2022/07/01 00:49:45;;;;;;;;;;;;;;;23.67;52.98;99538.13;3145348;28;19920;-67
2022/07/01 00:51:18;;;;;;;;;;;;;;;23.68;53.13;99544.25;3145761;28;19974;-67
2022/07/01 00:52:50;;;;;;;;;;;;;;;23.68;52.92;99538.94;3145687;28;19930;-67
2022/07/01 00:54:22;;;;;;;;;;;;;;;23.66;53.33;99539.09;3145376;28;19978;-67
2022/07/01 00:55:54;;;;;;;;;;;;;;;23.64;53.23;99534.94;3145677;28;19921;-68
2022/07/01 00:57:30;;;;;;;;;;;;;;;23.63;53.20;99544.72;3145390;28;19921;-67
2022/07/01 00:59:02;;;;;;;;;;;;;;;23.60;53.86;99542.38;3149139;28;19927;-66
2022/07/01 01:00:33;;;;;;;;;;;;;;;23.55;53.71;99539.41;3150843;28;20029;-65
2022/07/01 01:02:07;;;;;;;;;;;;;;;23.53;53.84;99539.53;3145357;28;19921;-66
2022/07/01 01:03:39;;;;;;;;;;;;;;;23.52;53.90;99542.38;3145622;28;20393;-67
2022/07/01 01:05:11;;;;;;;;;;;;;;;23.52;54.05;99542.38;3145277;28;19943;-67
2022/07/01 01:06:43;;;;;;;;;;;;;;;23.50;54.33;99549.66;3145754;28;19964;-67
2022/07/01 01:08:15;;;;;;;;;;;;;;;23.51;53.70;99543.34;3145263;28;19920;-67
2022/07/01 01:09:46;;;;;;;;;;;;;;;23.51;53.86;99544.19;3145536;28;19978;-68
2022/07/01 01:11:18;;;;;;;;;;;;;;;23.51;53.70;99538.84;3145424;28;20282;-67
2022/07/01 01:12:49;;;;;;;;;;;;;;;23.52;53.69;99545.84;3149536;28;19967;-67
2022/07/01 01:14:21;;;;;;;;;;;;;;;23.51;54.24;99543.34;3144824;28;19982;-65
2022/07/01 01:15:53;;;;;;;;;;;;;;;23.50;53.91;99547.00;3145215;28;19924;-65
2022/07/01 01:17:27;;;;;;;;;;;;;;;23.46;54.34;99535.03;3145054;28;19920;-65
2022/07/01 01:18:59;;;;;;;;;;;;;;;23.41;54.50;99540.00;3154981;28;19920;-67
2022/07/01 01:20:32;;;;;;;;;;;;;;;23.37;54.63;99542.97;3145210;28;19947;-65
2022/07/01 01:22:04;;;;;;;;;;;;;;;23.30;54.95;99541.91;3145389;28;19931;-65
2022/07/01 01:23:35;;;;;;;;;;;;;;;23.24;55.38;99547.03;3145531;28;19977;-65
2022/07/01 01:25:06;;;;;;;;;;;;;;;23.17;55.45;99533.53;3145171;28;19978;-65
2022/07/01 01:26:38;;;;;;;;;;;;;;;23.15;55.57;99539.00;3138324;28;19921;-65
2022/07/01 01:28:11;;;;;;;;;;;;;;;23.16;55.05;99538.03;3146392;28;20451;-65
2022/07/01 01:29:43;;;;;;;;;;;;;;;23.20;55.11;99541.19;3153300;28;19997;-65
2022/07/01 01:31:15;;;;;;;;;;;;;;;23.18;55.82;99532.53;3145155;28;19939;-65
2022/07/01 01:32:46;;;;;;;;;;;;;;;23.16;55.58;99539.84;3145166;28;19920;-65
2022/07/01 01:34:18;;;;;;;;;;;;;;;23.14;56.18;99533.84;3147441;28;20002;-65
2022/07/01 01:35:50;;;;;;;;;;;;;;;23.14;55.62;99541.81;3147414;28;19920;-65
2022/07/01 01:37:21;;;;;;;;;;;;;;;23.15;55.39;99541.66;3147360;28;19967;-65
2022/07/01 01:38:53;;;;;;;;;;;;;;;23.14;55.96;99533.84;3147526;28;19942;-67
2022/07/01 01:40:25;;;;;;;;;;;;;;;23.09;56.37;99530.81;3147335;28;21038;-65
2022/07/01 01:41:56;;;;;;;;;;;;;;;23.04;56.46;99531.31;3147346;28;19989;-65
2022/07/01 01:43:28;;;;;;;;;;;;;;;22.97;56.97;99526.75;3148530;28;19928;-65
2022/07/01 01:44:59;;;;;;;;;;;;;;;22.92;57.09;99524.53;3156202;28;20321;-66
2022/07/01 01:46:31;;;;;;;;;;;;;;;22.85;57.45;99524.31;3147204;28;19924;-65
2022/07/01 01:48:03;;;;;;;;;;;;;;;22.81;57.52;99520.31;3147219;28;20385;-65
2022/07/01 01:49:34;;;;;;;;;;;;;;;22.75;57.87;99526.25;3147380;28;19946;-65
2022/07/01 01:51:07;;;;;;;;;;;;;;;22.70;58.18;99539.16;3147013;28;19920;-65
2022/07/01 01:52:42;;;;;;;;;;;;;;;22.63;58.44;99538.94;3147473;28;19950;-65
2022/07/01 01:54:14;;;;;;;;;;;;;;;22.59;58.51;99539.38;3147102;28;19943;-66
2022/07/01 01:55:45;;;;;;;;;;;;;;;22.59;58.14;99548.16;3147072;28;19920;-65
2022/07/01 01:57:17;;;;;;;;;;;;;;;22.61;58.34;99548.03;3147130;28;19924;-65
2022/07/01 01:58:49;;;;;;;;;;;;;;;22.62;57.72;99553.16;3149114;28;20313;-65
2022/07/01 02:00:21;;;;;;;;;;;;;;;22.66;57.74;99561.69;3155069;28;19924;-65
2022/07/01 02:01:51;;;;;;;;;;;;;;;22.68;57.29;99557.03;3137459;28;19985;-65
2022/07/01 02:03:23;;;;;;;;;;;;;;;22.71;57.30;99556.72;3147021;28;19941;-66
2022/07/01 02:04:55;;;;;;;;;;;;;;;22.71;56.96;99546.94;3147145;28;19921;-65
2022/07/01 02:06:28;;;;;;;;;;;;;;;22.73;56.77;99549.44;3147270;28;19925;-66
2022/07/01 02:07:59;;;;;;;;;;;;;;;22.69;57.42;99548.94;3147599;28;19931;-65
2022/07/01 02:09:31;;;;;;;;;;;;;;;22.66;57.35;99551.06;3147284;28;19924;-65
2022/07/01 02:11:02;;;;;;;;;;;;;;;22.61;57.33;99556.81;3146638;28;19921;-65
2022/07/01 02:12:33;;;;;;;;;;;;;;;22.57;57.32;99563.44;3150947;28;19974;-65
2022/07/01 02:14:05;;;;;;;;;;;;;;;22.56;57.06;99558.25;3146923;28;19925;-65
2022/07/01 02:15:37;;;;;;;;;;;;;;;22.59;56.86;99555.28;3147111;28;19979;-65
2022/07/01 02:17:09;;;;;;;;;;;;;;;22.61;56.75;99558.66;3147000;28;19920;-65
2022/07/01 02:18:40;;;;;;;;;;;;;;;22.59;56.67;99553.47;3136071;28;19920;-65
2022/07/01 02:20:14;;;;;;;;;;;;;;;22.61;56.26;99563.94;3144552;28;19925;-65
2022/07/01 02:21:47;;;;;;;;;;;;;;;22.62;56.57;99560.31;3146953;28;19978;-65
2022/07/01 02:23:19;;;;;;;;;;;;;;;22.61;56.75;99563.94;3146738;28;19977;-65
2022/07/01 02:24:50;;;;;;;;;;;;;;;22.57;56.71;99562.56;3147187;28;19928;-65
2022/07/01 02:26:22;;;;;;;;;;;;;;;22.52;56.64;99562.22;3140996;28;19924;-65
2022/07/01 02:27:53;;;;;;;;;;;;;;;22.46;56.77;99556.53;3144298;28;19928;-65
2022/07/01 02:29:25;;;;;;;;;;;;;;;22.41;56.93;99556.13;3157040;28;19920;-65
2022/07/01 02:30:57;;;;;;;;;;;;;;;22.35;56.50;99566.53;3146840;28;19947;-66
2022/07/01 02:32:27;;;;;;;;;;;;;;;22.30;56.88;99569.59;3146840;28;20371;-65
2022/07/01 02:33:59;;;;;;;;;;;;;;;22.28;56.88;99568.94;3146697;28;19920;-65
2022/07/01 02:35:30;;;;;;;;;;;;;;;22.23;56.97;99576.50;3139790;28;20448;-65
2022/07/01 02:37:04;;;;;;;;;;;;;;;22.17;57.03;99571.81;3137339;28;19951;-65
2022/07/01 02:38:35;;;;;;;;;;;;;;;22.10;56.66;99573.38;3146918;28;19942;-65
2022/07/01 02:40:09;;;;;;;;;;;;;;;22.06;56.70;99578.09;3146324;28;19924;-66
2022/07/01 02:43:26;;;;;;;;;;;;;;;21.98;56.75;99576.22;3147859;28;19920;-65
2022/07/01 02:44:57;;;;;;;;;;;;;;;21.99;56.49;99580.53;3154508;28;19924;-65
2022/07/01 02:46:29;;;;;;;;;;;;;;;22.02;56.36;99593.47;3146520;28;19920;-65
2022/07/01 02:48:01;;;;;;;;;;;;;;;22.07;56.16;99581.63;3146433;28;19920;-65
2022/07/01 02:49:32;;;;;;;;;;;;;;;22.11;55.86;99582.97;3146412;28;20026;-65
2022/07/01 02:51:04;;;;;;;;;;;;;;;22.14;56.15;99591.47;3146477;28;20374;-66
2022/07/01 02:52:37;;;;;;;;;;;;;;;22.17;55.77;99591.19;3146386;28;19920;-65
2022/07/01 02:54:08;;;;;;;;;;;;;;;22.18;55.62;99586.72;3146116;28;19939;-65
2022/07/01 02:55:40;;;;;;;;;;;;;;;22.15;55.87;99592.28;3146089;28;19920;-66
2022/07/01 02:57:11;;;;;;;;;;;;;;;22.11;55.74;99582.97;3146620;28;19921;-65
2022/07/01 02:58:43;;;;;;;;;;;;;;;22.07;55.93;99586.91;3147518;28;19974;-65
2022/07/01 03:00:15;;;;;;;;;;;;;;;21.98;56.00;99586.00;3144789;28;20439;-65
2022/07/01 03:01:46;;;;;;;;;;;;;;;21.93;56.31;99591.72;3155820;28;19946;-65
2022/07/01 03:03:18;;;;;;;;;;;;;;;21.89;56.37;99598.31;3146530;28;19993;-65
2022/07/01 03:04:49;;;;;;;;;;;;;;;21.87;56.43;99605.56;3146190;28;19939;-66
2022/07/01 03:06:20;;;;;;;;;;;;;;;21.89;56.35;99605.41;3158209;28;19919;-65
2022/07/01 03:07:53;;;;;;;;;;;;;;;21.87;56.61;99610.88;3158747;28;19931;-65
2022/07/01 03:09:24;;;;;;;;;;;;;;;21.87;56.57;99602.09;3158781;28;19969;-65
2022/07/01 03:10:55;;;;;;;;;;;;;;;21.89;56.41;99603.63;3158493;28;20006;-65
2022/07/01 03:12:27;;;;;;;;;;;;;;;21.89;56.56;99603.63;3162752;28;20316;-65
2022/07/01 03:13:59;;;;;;;;;;;;;;;21.90;56.41;99607.09;3158834;28;20356;-65
2022/07/01 03:15:30;;;;;;;;;;;;;;;21.91;56.21;99617.53;3158813;28;20399;-65
2022/07/01 03:17:01;;;;;;;;;;;;;;;21.92;56.37;99616.56;3158922;28;19928;-65
2022/07/01 03:18:33;;;;;;;;;;;;;;;21.94;56.44;99605.81;3148837;28;19934;-65
2022/07/01 03:20:05;;;;;;;;;;;;;;;21.92;56.57;99613.09;3155055;28;19920;-66
2022/07/01 03:21:35;;;;;;;;;;;;;;;21.92;56.74;99618.41;3158344;28;20416;-65
2022/07/01 03:23:08;;;;;;;;;;;;;;;21.93;56.83;99623.53;3158588;28;19920;-65
2022/07/01 03:24:39;;;;;;;;;;;;;;;21.95;56.54;99618.09;3158766;28;19978;-65
2022/07/01 03:26:11;;;;;;;;;;;;;;;21.98;56.12;99613.34;3158570;28;20389;-65
2022/07/01 03:27:45;;;;;;;;;;;;;;;22.01;56.25;99626.28;3158452;28;19931;-65
2022/07/01 03:29:15;;;;;;;;;;;;;;;22.05;56.46;99626.84;3168813;28;20010;-66
2022/07/01 03:30:47;;;;;;;;;;;;;;;22.00;56.70;99626.44;3158705;28;19924;-67
2022/07/01 03:32:18;;;;;;;;;;;;;;;21.95;57.14;99618.94;3158445;28;19942;-67
2022/07/01 03:33:50;;;;;;;;;;;;;;;21.92;57.42;99619.22;3158631;28;19920;-67
2022/07/01 03:35:39;;;;;;;;;;;;;;;21.92;57.46;99613.91;3158521;28;19958;-67
2022/07/01 03:37:11;;;;;;;;;;;;;;;21.90;57.03;99602.63;3158523;28;19920;-67
2022/07/01 03:38:44;;;;;;;;;;;;;;;21.97;57.08;99616.13;3158511;28;20438;-65
2022/07/01 03:40:16;;;;;;;;;;;;;;;21.98;56.96;99615.16;3158281;28;19973;-67
2022/07/01 03:41:47;;;;;;;;;;;;;;;21.96;57.14;99612.63;3158307;28;20063;-67
2022/07/01 03:43:18;;;;;;;;;;;;;;;21.95;57.32;99613.63;3158644;28;19920;-67
2022/07/01 03:44:49;;;;;;;;;;;;;;;21.95;56.98;99621.59;3168753;28;19972;-68
2022/07/01 03:46:21;;;;;;;;;;;;;;;21.95;57.40;99620.75;3158626;28;19920;-66
2022/07/01 03:47:52;;;;;;;;;;;;;;;21.91;57.38;99616.69;3158600;28;19923;-66
2022/07/01 03:49:24;;;;;;;;;;;;;;;21.89;57.64;99616.88;3158320;28;19943;-66
2022/07/01 03:50:56;;;;;;;;;;;;;;;21.87;57.84;99616.16;3158510;28;19927;-66
2022/07/01 03:52:27;;;;;;;;;;;;;;;21.89;57.84;99619.50;3158282;28;19949;-66
2022/07/01 03:55:48;;;;;;;;;;;;;;;21.88;57.75;99615.19;3158078;28;19920;-66
2022/07/01 03:57:21;;;;;;;;;;;;;;;21.89;57.52;99623.97;3158286;28;19973;-66
2022/07/01 03:58:53;;;;;;;;;;;;;;;21.87;57.67;99620.63;3160632;28;19920;-66
2022/07/01 04:00:25;;;;;;;;;;;;;;;21.87;57.32;99624.13;3165596;28;20400;-67
2022/07/01 04:01:58;;;;;;;;;;;;;;;21.87;57.38;99618.81;3158486;28;19981;-66
2022/07/01 04:03:29;;;;;;;;;;;;;;;21.89;57.36;99616.00;3157613;28;20980;-66
2022/07/01 04:05:01;;;;;;;;;;;;;;;21.89;57.47;99619.50;3158114;28;19920;-66
2022/07/01 04:06:32;;;;;;;;;;;;;;;21.90;57.36;99615.88;3157787;28;19924;-66
2022/07/01 04:08:05;;;;;;;;;;;;;;;21.90;57.37;99625.66;3158363;28;19925;-66
2022/07/01 04:09:38;;;;;;;;;;;;;;;21.88;57.22;99628.44;3158014;28;19924;-66
2022/07/01 04:11:09;;;;;;;;;;;;;;;21.90;57.09;99623.81;3158122;28;19920;-66
2022/07/01 04:12:41;;;;;;;;;;;;;;;21.92;56.68;99624.53;3161896;28;19927;-66
2022/07/01 04:14:12;;;;;;;;;;;;;;;21.95;56.93;99624.22;3158423;28;20374;-66
2022/07/01 04:15:44;;;;;;;;;;;;;;;21.99;56.70;99619.47;3158116;28;19985;-66
2022/07/01 04:17:16;;;;;;;;;;;;;;;22.04;56.77;99618.03;3158040;28;19920;-66
2022/07/01 04:18:48;;;;;;;;;;;;;;;22.08;56.43;99618.56;3151351;28;20474;-66
2022/07/01 04:20:19;;;;;;;;;;;;;;;22.12;56.29;99619.94;3158118;28;20009;-66
2022/07/01 04:23:38;;;;;;;;;;;;;;;22.16;56.06;99615.19;3147455;28;19978;-66
2022/07/01 04:25:11;;;;;;;;;;;;;;;22.19;56.11;99620.25;3158068;28;19934;-67
2022/07/01 04:26:42;;;;;;;;;;;;;;;22.21;55.97;99624.41;3158308;28;19969;-66
2022/07/01 04:28:14;;;;;;;;;;;;;;;22.26;55.92;99621.31;3159963;28;19924;-66
2022/07/01 04:29:44;;;;;;;;;;;;;;;22.28;56.01;99618.50;3166160;28;19920;-66
2022/07/01 04:31:16;;;;;;;;;;;;;;;22.29;55.62;99615.69;3157974;28;19988;-66
2022/07/01 04:32:47;;;;;;;;;;;;;;;22.31;55.75;99620.88;3158116;28;19946;-66
2022/07/01 04:34:19;;;;;;;;;;;;;;;22.34;55.77;99613.44;3157886;28;19919;-66
2022/07/01 04:35:50;;;;;;;;;;;;;;;22.36;55.91;99622.09;3157789;28;19928;-66
2022/07/01 04:37:22;;;;;;;;;;;;;;;22.40;55.69;99623.47;3158130;28;19928;-66
2022/07/01 04:38:54;;;;;;;;;;;;;;;22.42;55.41;99617.97;3158185;28;19920;-67
2022/07/01 04:40:27;;;;;;;;;;;;;;;22.47;55.60;99613.91;3157366;28;19924;-66
2022/07/01 04:42:00;;;;;;;;;;;;;;;22.52;55.27;99617.94;3157678;28;19927;-66
2022/07/01 04:43:31;;;;;;;;;;;;;;;22.56;55.46;99611.34;3159782;28;20337;-66
2022/07/01 04:45:03;;;;;;;;;;;;;;;22.61;55.25;99614.38;3166298;28;19920;-66
2022/07/01 04:46:33;;;;;;;;;;;;;;;22.64;54.78;99612.25;3157839;28;20064;-66
2022/07/01 04:48:05;;;;;;;;;;;;;;;22.70;54.91;99616.13;3157749;28;20420;-66
2022/07/01 04:49:37;;;;;;;;;;;;;;;22.75;54.56;99616.50;3158490;28;19924;-66
2022/07/01 04:51:08;;;;;;;;;;;;;;;22.82;54.56;99614.06;3158252;28;20036;-66
2022/07/01 04:52:40;;;;;;;;;;;;;;;22.89;54.39;99609.81;3158289;28;19973;-66
2022/07/01 04:54:11;;;;;;;;;;;;;;;22.96;54.26;99612.75;3157907;28;19924;-67
2022/07/01 04:55:44;;;;;;;;;;;;;;;22.98;53.91;99608.09;3158190;28;19927;-68
2022/07/01 04:57:16;;;;;;;;;;;;;;;23.00;53.68;99608.78;3157684;28;19920;-65
2022/07/01 04:58:47;;;;;;;;;;;;;;;23.05;53.58;99611.81;3159083;28;19999;-66
2022/07/01 05:00:18;;;;;;;;;;;;;;;23.07;53.36;99613.34;3155171;28;19961;-65
2022/07/01 05:01:50;;;;;;;;;;;;;;;23.08;53.28;99606.19;3157743;28;20369;-65
2022/07/01 05:03:21;;;;;;;;;;;;;;;23.11;53.45;99606.72;3157362;28;19952;-65
2022/07/01 05:04:53;;;;;;;;;;;;;;;23.16;53.24;99614.22;3158063;28;20249;-65
2022/07/01 05:06:25;;;;;;;;;;;;;;;23.17;52.85;99602.59;3157671;28;20289;-65
2022/07/01 05:07:57;;;;;;;;;;;;;;;23.22;52.84;99610.94;3158081;28;20328;-65
2022/07/01 05:09:28;;;;;;;;;;;;;;;23.26;53.27;99609.63;3160301;28;20344;-65
2022/07/01 05:11:00;;;;;;;;;;;;;;;23.30;53.15;99608.31;3160544;28;20619;-66
2022/07/01 05:12:32;;;;;;;;;;;;;;;23.33;53.31;99605.34;3164424;28;19923;-65
2022/07/01 05:14:03;;;;;;;;;;;;;;;23.35;53.03;99606.03;3160631;28;19920;-65
2022/07/01 05:15:35;;;;;;;;;;;;;;;23.37;52.88;99611.22;3160257;28;19931;-65
2022/07/01 05:17:06;;;;;;;;;;;;;;;23.40;53.04;99610.91;3160419;28;20579;-65
2022/07/01 05:22:16;;;;;;;;;;;;;;;23.47;53.27;99619.09;3160285;28;19924;-65
2022/07/01 05:23:46;;;;;;;;;;;;;;;23.49;53.69;99623.25;3159920;28;19920;-66
2022/07/01 05:25:18;;;;;;;;;;;;;;;23.52;53.38;99619.44;3160152;28;19920;-66
2022/07/01 05:26:51;;;;;;;;;;;;;;;23.56;53.47;99621.63;3160361;28;19963;-65
2022/07/01 05:28:23;;;;;;;;;;;;;;;23.60;53.49;99617.69;3163245;28;19923;-65
2022/07/01 05:29:54;;;;;;;;;;;;;;;23.68;53.37;99622.19;3166845;28;19994;-65
2022/07/01 05:31:25;;;;;;;;;;;;;;;23.74;53.41;99620.75;3160503;28;19920;-66
2022/07/01 05:32:56;;;;;;;;;;;;;;;23.79;53.25;99621.94;3160025;28;19945;-65
2022/07/01 05:34:28;;;;;;;;;;;;;;;23.83;53.10;99623.28;3160020;28;20385;-65
2022/07/01 05:35:59;;;;;;;;;;;;;;;23.90;53.03;99620.00;3160140;28;19919;-65
2022/07/01 05:37:31;;;;;;;;;;;;;;;23.96;52.64;99620.22;3160130;28;19928;-65
2022/07/01 05:39:04;;;;;;;;;;;;;;;24.05;52.60;99623.75;3160245;28;20387;-65
2022/07/01 05:40:35;;;;;;;;;;;;;;;24.10;52.39;99623.25;3159863;28;20393;-66
2022/07/01 05:42:08;;;;;;;;;;;;;;;24.16;52.11;99623.41;3159694;28;20362;-66
2022/07/01 05:43:39;;;;;;;;;;;;;;;24.24;52.02;99622.63;3163356;28;20034;-65
2022/07/01 05:45:11;;;;;;;;;;;;;;;24.33;52.05;99618.16;3167083;28;19987;-65
2022/07/01 05:46:42;;;;;;;;;;;;;;;24.40;51.70;99627.16;3159907;28;20382;-65
2022/07/01 05:48:14;;;;;;;;;;;;;;;24.47;51.52;99626.38;3160105;28;20309;-65
2022/07/01 05:49:46;;;;;;;;;;;;;;;24.54;51.39;99625.72;3159754;28;19926;-65
2022/07/01 05:51:16;;;;;;;;;;;;;;;24.61;51.50;99627.59;3159944;28;19924;-65
2022/07/01 05:52:48;;;;;;;;;;;;;;;24.58;51.06;99619.94;3160220;28;19920;-65
2022/07/01 05:54:19;;;;;;;;;;;;;;;24.72;51.02;99626.41;3159700;28;20290;-66
2022/07/01 05:55:51;;;;;;;;;;;;;;;24.79;50.45;99623.91;3159584;28;19920;-65
2022/07/01 05:57:24;;;;;;;;;;;;;;;24.85;50.19;99624.13;3159988;28;19931;-65
2022/07/01 05:58:56;;;;;;;;;;;;;;;24.91;50.09;99627.94;3162258;28;19988;-65
2022/07/01 06:00:27;;;;;;;;;;;;;;;25.00;50.45;99626.13;3156940;28;19981;-65
2022/07/01 06:01:59;;;;;;;;;;;;;;;25.09;50.33;99630.44;3159289;28;20317;-65
2022/07/01 06:03:30;;;;;;;;;;;;;;;25.15;49.72;99627.97;3159795;28;19920;-66
2022/07/01 06:05:02;;;;;;;;;;;;;;;25.23;49.82;99626.28;3159925;28;20423;-66
2022/07/01 06:06:34;;;;;;;;;;;;;;;25.31;49.89;99634.28;3159803;28;19920;-66
2022/07/01 06:08:05;;;;;;;;;;;;;;;25.40;49.50;99634.09;3159732;28;19920;-66
2022/07/01 06:09:37;;;;;;;;;;;;;;;25.50;49.05;99630.44;3159796;28;19924;-66
2022/07/01 06:11:08;;;;;;;;;;;;;;;25.57;48.83;99624.25;3159469;28;20373;-65
2022/07/01 06:12:41;;;;;;;;;;;;;;;25.65;48.80;99620.75;3163813;28;20368;-66
2022/07/01 06:14:13;;;;;;;;;;;;;;;25.73;48.59;99627.88;3159735;28;19924;-66
2022/07/01 06:15:44;;;;;;;;;;;;;;;25.79;48.45;99619.19;3159573;28;19946;-66
2022/07/01 06:17:16;;;;;;;;;;;;;;;25.85;48.43;99622.03;3160059;28;19924;-66
2022/07/01 06:18:47;;;;;;;;;;;;;;;25.85;48.06;99615.84;3147946;28;19924;-66
2022/07/01 06:20:19;;;;;;;;;;;;;;;25.92;47.36;99624.84;3157828;28;19924;-66
2022/07/01 06:21:50;;;;;;;;;;;;;;;25.97;47.15;99627.84;3159755;28;19920;-66
2022/07/01 06:23:22;;;;;;;;;;;;;;;26.01;46.70;99630.97;3159748;28;20290;-66
2022/07/01 06:24:52;;;;;;;;;;;;;;;26.08;47.02;99626.59;3159616;28;20366;-66
2022/07/01 06:26:24;;;;;;;;;;;;;;;26.10;46.86;99636.09;3159827;28;20055;-66
2022/07/01 06:27:57;;;;;;;;;;;;;;;26.16;46.52;99625.75;3159684;28;19920;-67
2022/07/01 06:29:29;;;;;;;;;;;;;;;26.21;46.32;99629.56;3169786;28;19984;-66
2022/07/01 06:31:00;;;;;;;;;;;;;;;26.24;46.01;99628.38;3159486;28;19974;-66
2022/07/01 06:32:32;;;;;;;;;;;;;;;26.27;46.33;99631.53;3159464;28;19935;-66
2022/07/01 06:34:04;;;;;;;;;;;;;;;26.31;45.87;99626.66;3159601;28;19943;-66
2022/07/01 06:35:35;;;;;;;;;;;;;;;26.37;46.26;99630.47;3159274;28;19920;-66
2022/07/01 06:37:07;;;;;;;;;;;;;;;26.43;46.03;99625.25;3159344;28;19981;-66
2022/07/01 06:38:39;;;;;;;;;;;;;;;26.51;46.28;99629.75;3158790;28;20415;-66
2022/07/01 06:40:10;;;;;;;;;;;;;;;26.56;45.41;99627.38;3159428;28;20316;-66
2022/07/01 06:41:41;;;;;;;;;;;;;;;26.65;45.74;99622.81;3159327;28;19999;-67
2022/07/01 06:43:14;;;;;;;;;;;;;;;26.73;45.58;99634.28;3159427;28;19924;-67
2022/07/01 06:44:46;;;;;;;;;;;;;;;26.81;45.49;99628.03;3169779;28;19923;-67
2022/07/01 06:46:17;;;;;;;;;;;;;;;26.90;45.34;99628.81;3159350;28;20410;-67
2022/07/01 06:47:49;;;;;;;;;;;;;;;27.01;44.86;99628.41;3159144;28;20355;-66
2022/07/01 06:49:21;;;;;;;;;;;;;;;27.09;44.71;99625.63;3159057;28;19927;-67
2022/07/01 06:50:52;;;;;;;;;;;;;;;27.15;44.29;99624.97;3159436;28;19931;-66
2022/07/01 06:52:24;;;;;;;;;;;;;;;27.21;43.66;99618.03;3158286;28;20345;-66
2022/07/01 06:53:55;;;;;;;;;;;;;;;27.26;43.66;99623.69;3159067;28;20360;-67
2022/07/01 06:55:27;;;;;;;;;;;;;;;27.32;42.95;99625.63;3159290;28;19924;-66
2022/07/01 06:56:58;;;;;;;;;;;;;;;27.36;42.85;99618.06;3159281;28;20307;-67
2022/07/01 06:58:32;;;;;;;;;;;;;;;27.42;43.05;99617.38;3159024;28;19931;-66
2022/07/01 07:00:04;;;;;;;;;;;;;;;27.47;43.03;99616.81;3161224;28;19946;-66
2022/07/01 07:01:35;;;;;;;;;;;;;;;27.53;42.74;99619.56;3159016;28;20324;-67
2022/07/01 07:03:07;;;;;;;;;;;;;;;27.61;43.21;99624.00;3159335;28;20356;-66
2022/07/01 07:04:38;;;;;;;;;;;;;;;27.66;42.83;99622.44;3158749;28;19969;-66
2022/07/01 07:06:10;;;;;;;;;;;;;;;27.71;43.02;99624.56;3158751;28;19920;-66
2022/07/01 07:07:41;;;;;;;;;;;;;;;27.80;42.48;99619.97;3158794;28;19924;-66
2022/07/01 07:09:13;;;;;;;;;;;;;;;27.87;42.38;99615.56;3158972;28;20061;-66
2022/07/01 07:10:45;;;;;;;;;;;;;;;27.95;42.40;99623.47;3158984;28;19920;-66
2022/07/01 07:12:16;;;;;;;;;;;;;;;28.05;42.13;99609.81;3162951;28;19927;-66
2022/07/01 07:13:49;;;;;;;;;;;;;;;28.13;42.60;99613.22;3158814;28;19924;-66
2022/07/01 07:15:21;;;;;;;;;;;;;;;28.20;41.97;99609.78;3158999;28;19920;-66
2022/07/01 07:16:54;;;;;;;;;;;;;;;28.27;42.16;99603.47;3158960;28;20576;-67
2022/07/01 07:18:25;;;;;;;;;;;;;;;28.36;41.99;99605.00;3149875;28;19931;-67
2022/07/01 07:19:57;;;;;;;;;;;;;;;28.43;41.64;99607.81;3153892;28;19924;-66
2022/07/01 07:21:29;;;;;;;;;;;;;;;28.51;41.68;99609.53;3158710;28;19920;-66
2022/07/01 07:23:00;;;;;;;;;;;;;;;28.62;41.45;99605.53;3158586;28;19920;-66
2022/07/01 07:24:32;;;;;;;;;;;;;;;28.70;41.68;99606.25;3158783;28;19924;-66
2022/07/01 07:26:03;;;;;;;;;;;;;;;28.80;41.36;99608.59;3158834;28;19924;-66
2022/07/01 07:27:35;;;;;;;;;;;;;;;28.92;40.84;99612.41;3158626;28;19924;-66
2022/07/01 07:29:08;;;;;;;;;;;;;;;29.00;40.66;99603.41;3168254;28;19919;-66
2022/07/01 07:30:39;;;;;;;;;;;;;;;29.06;40.27;99607.19;3158558;28;19920;-67
2022/07/01 07:32:11;;;;;;;;;;;;;;;29.11;40.20;99602.91;3158806;28;19919;-66
2022/07/01 07:33:43;;;;;;;;;;;;;;;29.16;40.27;99607.69;3158219;28;20389;-66
2022/07/01 07:35:14;;;;;;;;;;;;;;;29.22;40.33;99602.38;3158393;28;19920;-66
2022/07/01 07:36:46;;;;;;;;;;;;;;;29.31;40.15;99611.09;3158718;28;19920;-65
2022/07/01 07:38:17;;;;;;;;;;;;;;;29.40;39.78;99614.44;3158141;28;19935;-64
2022/07/01 07:39:49;;;;;;;;;;;;;;;29.41;38.84;99610.78;3158439;28;19920;-67
2022/07/01 07:41:21;;;;;;;;;;;;;;;29.45;39.15;99617.38;3158438;28;19920;-67
2022/07/01 07:42:52;;;;;;;;;;;;;;;29.51;39.16;99621.97;3158499;28;19924;-66
2022/07/01 07:44:25;;;;;;;;;;;;;;;29.54;38.46;99610.84;3167640;28;19931;-67
2022/07/01 07:45:57;;;;;;;;;;;;;;;29.61;38.40;99606.34;3158960;28;20477;-67
2022/07/01 07:47:28;;;;;;;;;;;;;;;29.73;38.42;99603.13;3158309;28;19923;-66
2022/07/01 07:49:00;;;;;;;;;;;;;;;29.81;37.82;99605.66;3158150;28;19943;-66
2022/07/01 07:50:31;;;;;;;;;;;;;;;29.89;37.63;99608.19;3158262;28;19981;-64
2022/07/01 07:52:03;;;;;;;;;;;;;;;29.96;37.25;99608.19;3158316;28;19920;-66
2022/07/01 07:53:35;;;;;;;;;;;;;;;30.01;37.17;99605.75;3158260;28;19992;-67
2022/07/01 07:55:07;;;;;;;;;;;;;;;30.07;37.04;99613.00;3158542;28;19931;-66
2022/07/01 07:56:39;;;;;;;;;;;;;;;30.15;37.13;99604.78;3158421;28;19941;-66
2022/07/01 07:58:10;;;;;;;;;;;;;;;30.23;36.94;99610.00;3158319;28;19943;-66
2022/07/01 07:59:43;;;;;;;;;;;;;;;30.31;37.24;99601.75;3164008;28;19972;-67
2022/07/01 08:01:15;;;;;;;;;;;;;;;30.40;37.15;99609.63;3157380;28;19942;-66
2022/07/01 08:02:47;;;;;;;;;;;;;;;30.48;37.14;99598.69;3158072;28;19920;-64
2022/07/01 08:04:19;;;;;;;;;;;;;;;30.58;36.91;99599.94;3157986;28;19920;-64
2022/07/01 08:05:50;;;;;;;;;;;;;;;30.72;36.78;99602.66;3158009;28;20509;-67
2022/07/01 08:07:22;;;;;;;;;;;;;;;30.86;36.90;99607.06;3158055;28;19928;-66